Robris — LJXX — position and weather

sailwx.info

Track history (hours):
 
Tides and Currents Weather Stations Pressure Air Temp Water Temp Dewpoint Dewpoint Depression Visibility Wind Speed Wind Dir Waves Ship Positions

Robris

Last reported at 2017-Dec-17 02:01 UTC. Time now 2017-Dec-17 02:15 UTC.
Position N 69°44' E 030°02'.

Length 46 m; draft 5.3 m.

Type: Cargo ship. MMSI: 259631000.

Date/timePositionNaut miles runAvg speedWind from/ knotsBaromVisibWave heightAir tempDewpointWater temp
2017-Dec-17 02:01N 69°44' E 030°02'0 0.0
2017-Dec-17 01:30N 69°44' E 030°02'0 0.0
2017-Dec-17 01:00N 69°44' E 030°02'0 0.0
2017-Dec-17 00:30N 69°44' E 030°02'0 0.0
2017-Dec-17 00:00N 69°44' E 030°02'0 0.0
2017-Dec-16 23:30N 69°44' E 030°02'0 0.0
2017-Dec-16 23:00N 69°44' E 030°02'0 0.0
2017-Dec-16 22:30N 69°44' E 030°02'0 0.0
2017-Dec-16 22:00N 69°44' E 030°02'0 0.0
2017-Dec-16 21:30N 69°44' E 030°02'0 0.0
2017-Dec-16 21:00N 69°44' E 030°02'0 0.0
2017-Dec-16 20:29N 69°44' E 030°02'0 0.0
2017-Dec-16 20:00N 69°44' E 030°02'0 0.0
2017-Dec-16 19:30N 69°44' E 030°02'0 0.0
2017-Dec-16 19:00N 69°44' E 030°02'0 0.0
2017-Dec-16 18:30N 69°44' E 030°02'0 0.0
2017-Dec-16 18:00N 69°44' E 030°02'0 0.0
2017-Dec-16 17:30N 69°44' E 030°02'0 0.0
2017-Dec-16 16:59N 69°44' E 030°02'0 0.0
2017-Dec-16 16:30N 69°44' E 030°02'0 0.0
2017-Dec-16 16:00N 69°44' E 030°02'0 0.0
2017-Dec-16 15:30N 69°44' E 030°02'0 0.0
2017-Dec-16 15:01N 69°44' E 030°02'0 0.0
2017-Dec-16 14:30N 69°44' E 030°02'0 0.0
2017-Dec-16 14:00N 69°44' E 030°02'1 0.1
2017-Dec-15 22:10N 69°44' E 030°06'1 8.0
2017-Dec-15 22:00N 69°45' E 030°06'4 8.0
2017-Dec-15 21:30N 69°49' E 030°06'4 7.8
2017-Dec-15 21:00N 69°53' E 030°01'4 8.1
2017-Dec-15 20:30N 69°56' E 029°55'4 8.7
2017-Dec-15 20:00N 69°59' E 029°45'9 2.9
2017-Dec-15 16:50N 70°02' E 029°20'310.2
2017-Dec-15 16:30N 70°01' E 029°29'510.5
2017-Dec-15 16:00N 69°59' E 029°44'510.3
2017-Dec-15 15:30N 69°56' E 029°55'510.7
2017-Dec-15 15:00N 69°51' E 030°03'5 9.9
2017-Dec-15 14:30N 69°46' E 030°06'2 0.3
2017-Dec-15 06:29N 69°44' E 030°06'4 7.8
2017-Dec-15 06:00N 69°48' E 030°06'4 8.1
2017-Dec-15 05:29N 69°52' E 030°07'4 7.5
2017-Dec-15 05:00N 69°55' E 030°13'4 7.8
2017-Dec-15 04:30N 69°58' E 030°20'4 7.7
2017-Dec-15 04:00N 70°01' E 030°27'11 7.7
2017-Dec-15 02:30N 70°10' E 030°49'11 7.1
2017-Dec-15 01:00N 70°19' E 031°05'5 9.3
2017-Dec-15 00:30N 70°23' E 031°03'5 0.9
2017-Dec-14 18:30N 70°28' E 030°55'510.6
2017-Dec-14 18:01N 70°23' E 031°03'611.5
2017-Dec-14 17:30N 70°18' E 031°05'510.9
2017-Dec-14 17:01N 70°13' E 030°56'611.0
2017-Dec-14 16:30N 70°09' E 030°46'611.1
2017-Dec-14 16:00N 70°05' E 030°35'1111.3
2017-Dec-14 15:00N 69°56' E 030°15'611.5
2017-Dec-14 14:30N 69°51' E 030°07'7 0.7
2017-Dec-14 04:53N 69°44' E 030°06'3 7.0
2017-Dec-14 04:30N 69°47' E 030°06'4 8.3
2017-Dec-14 04:00N 69°51' E 030°07'4 7.6
2017-Dec-14 03:30N 69°54' E 030°12'4 8.2
2017-Dec-14 03:00N 69°57' E 030°19'4 8.3
2017-Dec-14 02:30N 70°01' E 030°27'4 8.3
2017-Dec-14 02:00N 70°04' E 030°34'4 8.4
2017-Dec-14 01:30N 70°07' E 030°43'4 8.6
2017-Dec-14 01:00N 70°10' E 030°50'4 8.7
2017-Dec-14 00:29N 70°14' E 030°58'4 8.6
2017-Dec-14 00:01N 70°17' E 031°05'4 8.7
2017-Dec-13 23:30N 70°22' E 031°04'5 9.1
2017-Dec-13 23:00N 70°26' E 031°00'4 8.7
2017-Dec-13 22:30N 70°29' E 030°51'4 8.4
2017-Dec-13 22:00N 70°32' E 030°42'4 1.2
2017-Dec-13 18:20N 70°34' E 030°30'411.1
2017-Dec-13 18:00N 70°33' E 030°41'611.4
2017-Dec-13 17:30N 70°29' E 030°53'611.5
2017-Dec-13 17:00N 70°24' E 031°03'611.5
2017-Dec-13 16:30N 70°18' E 031°05'510.2
2017-Dec-13 16:00N 70°14' E 030°58'510.6
2017-Dec-13 15:30N 70°10' E 030°48'510.6
2017-Dec-13 15:00N 70°06' E 030°38'510.8
2017-Dec-13 14:30N 70°01' E 030°28'510.8
2017-Dec-13 14:00N 69°57' E 030°18'511.0
2017-Dec-13 13:30N 69°53' E 030°09'611.3
2017-Dec-13 13:00N 69°47' E 030°06'3 0.4
2017-Dec-13 04:07N 69°44' E 030°06'1 6.2
2017-Dec-13 04:00N 69°45' E 030°06'4 8.7
2017-Dec-13 03:30N 69°49' E 030°06'4 8.5
2017-Dec-13 03:00N 69°53' E 030°09'4 8.8
2017-Dec-13 02:30N 69°56' E 030°17'4 8.7
2017-Dec-13 02:00N 69°60' E 030°26'4 8.8
2017-Dec-13 01:30N 70°03' E 030°34'4 8.7
2017-Dec-13 01:00N 70°07' E 030°42'4 9.1
2017-Dec-13 00:30N 70°10' E 030°49'5 9.3
2017-Dec-13 00:00N 70°14' E 030°58'4 8.6
2017-Dec-12 23:30N 70°18' E 031°05'5 9.4
2017-Dec-12 23:00N 70°22' E 031°04'5 9.3
2017-Dec-12 22:30N 70°27' E 030°59'4 9.0
2017-Dec-12 22:00N 70°30' E 030°50'4 8.9
2017-Dec-12 21:31N 70°33' E 030°41'4 1.1
2017-Dec-12 18:07N 70°34' E 030°30'110.6
2017-Dec-12 18:00N 70°34' E 030°33'510.4
2017-Dec-12 17:30N 70°31' E 030°47'511.3
2017-Dec-12 17:01N 70°27' E 030°58'611.1
2017-Dec-12 16:30N 70°22' E 031°04'510.7
2017-Dec-12 16:00N 70°16' E 031°04'510.9
2017-Dec-12 15:30N 70°12' E 030°54'510.7
2017-Dec-12 15:00N 70°08' E 030°44'510.9
2017-Dec-12 14:30N 70°04' E 030°34'510.9
2017-Dec-12 14:01N 69°60' E 030°24'611.3
2017-Dec-12 13:31N 69°55' E 030°14'611.2
2017-Dec-12 12:59N 69°50' E 030°07'6 0.6
2017-Dec-12 03:47N 69°44' E 030°06'2 7.5
2017-Dec-12 03:30N 69°46' E 030°05'4 8.0
2017-Dec-12 03:01N 69°50' E 030°07'4 7.5
2017-Dec-12 02:30N 69°54' E 030°11'4 8.0
2017-Dec-12 01:59N 69°57' E 030°18'4 8.0
2017-Dec-12 01:30N 69°60' E 030°25'4 8.2
2017-Dec-12 00:59N 70°03' E 030°33'4 8.1
2017-Dec-12 00:30N 70°06' E 030°40'4 8.0
2017-Dec-12 00:00N 70°09' E 030°47'4 8.0
2017-Dec-11 23:30N 70°12' E 030°55'4 7.6
2017-Dec-11 23:00N 70°15' E 031°02'4 7.3
2017-Dec-11 22:30N 70°19' E 031°05'5 9.0
2017-Dec-11 22:00N 70°23' E 031°03'5 8.9
2017-Dec-11 21:30N 70°27' E 030°58'4 8.5
2017-Dec-11 21:00N 70°30' E 030°49'4 8.3
2017-Dec-11 20:30N 70°33' E 030°40'3 0.9
2017-Dec-11 16:37N 70°34' E 030°30'110.5
2017-Dec-11 16:30N 70°34' E 030°33'510.7
2017-Dec-11 16:00N 70°31' E 030°47'611.2
2017-Dec-11 15:30N 70°27' E 030°59'611.3
2017-Dec-11 15:00N 70°21' E 031°04'611.0
2017-Dec-11 14:30N 70°16' E 031°03'510.8
2017-Dec-11 14:00N 70°12' E 030°54'510.6
2017-Dec-11 13:31N 70°08' E 030°44'510.7
2017-Dec-11 13:00N 70°04' E 030°34'610.9
2017-Dec-11 12:30N 69°59' E 030°24'611.0
2017-Dec-11 12:00N 69°55' E 030°14'611.3
2017-Dec-11 11:30N 69°50' E 030°07'6 0.5
2017-Dec-10 23:49N 69°44' E 030°06'2 7.4
2017-Dec-10 23:30N 69°46' E 030°06'4 8.4
2017-Dec-10 23:00N 69°50' E 030°07'4 8.0
2017-Dec-10 22:30N 69°54' E 030°12'4 8.5
2017-Dec-10 22:00N 69°57' E 030°20'4 8.4
2017-Dec-10 21:30N 70°01' E 030°28'4 8.8
2017-Dec-10 21:00N 70°04' E 030°35'4 8.7
2017-Dec-10 20:30N 70°07' E 030°43'4 8.7
2017-Dec-10 20:00N 70°11' E 030°51'4 8.5
2017-Dec-10 19:30N 70°14' E 030°59'4 8.0
2017-Dec-10 19:00N 70°18' E 031°05'4 8.3
2017-Dec-10 18:30N 70°22' E 031°04'4 8.9
2017-Dec-10 18:00N 70°26' E 031°00'4 8.1
2017-Dec-10 17:30N 70°29' E 030°52'4 8.0
2017-Dec-10 16:59N 70°32' E 030°43'4 7.8
2017-Dec-10 16:30N 70°34' E 030°33'1 0.3
2017-Dec-10 12:00N 70°34' E 030°29'510.2
2017-Dec-10 11:30N 70°32' E 030°43'510.5
2017-Dec-10 11:00N 70°28' E 030°55'5 9.9
2017-Dec-10 10:30N 70°25' E 031°05'2 4.3
2017-Dec-10 10:00N 70°23' E 031°06'0 0.0
2017-Dec-10 09:30N 70°23' E 031°06'0 0.0
2017-Dec-10 09:01N 70°23' E 031°06'0 0.0
2017-Dec-10 08:30N 70°23' E 031°06'0 0.0
2017-Dec-10 08:01N 70°23' E 031°06'0 0.0
2017-Dec-10 07:30N 70°23' E 031°06'0 0.0
2017-Dec-10 07:00N 70°23' E 031°06'0 0.0
2017-Dec-10 06:30N 70°23' E 031°06'0 0.0
2017-Dec-10 06:00N 70°23' E 031°06'0 0.0
2017-Dec-10 05:30N 70°23' E 031°06'0 0.0
2017-Dec-10 05:00N 70°23' E 031°06'0 0.0
2017-Dec-10 04:30N 70°23' E 031°06'0 0.0
2017-Dec-10 04:01N 70°23' E 031°06'0 0.0
2017-Dec-10 03:30N 70°23' E 031°06'0 0.0
2017-Dec-10 03:00N 70°23' E 031°06'0 0.0
2017-Dec-10 02:30N 70°23' E 031°06'0 0.0
2017-Dec-10 02:00N 70°23' E 031°06'0 0.0
2017-Dec-10 01:30N 70°23' E 031°06'0 0.0
2017-Dec-10 00:59N 70°23' E 031°06'0 0.0
2017-Dec-10 00:30N 70°23' E 031°06'0 0.0
2017-Dec-10 00:00N 70°23' E 031°06'0 0.0
2017-Dec-09 23:30N 70°23' E 031°06'0 0.0
2017-Dec-09 23:00N 70°23' E 031°06'0 0.0
2017-Dec-09 22:30N 70°23' E 031°06'0 0.0
2017-Dec-09 22:00N 70°23' E 031°06'0 0.0
2017-Dec-09 21:30N 70°23' E 031°06'0 0.0
2017-Dec-09 21:00N 70°23' E 031°06'0 0.0
2017-Dec-09 20:30N 70°23' E 031°06'0 0.0
2017-Dec-09 20:00N 70°23' E 031°06'2 4.5
2017-Dec-09 19:30N 70°20' E 031°07'5 9.6
2017-Dec-09 19:00N 70°16' E 031°02'4 9.0
2017-Dec-09 18:30N 70°12' E 030°54'4 8.7
2017-Dec-09 18:01N 70°09' E 030°46'5 8.8
2017-Dec-09 17:30N 70°05' E 030°37'4 8.6
2017-Dec-09 17:00N 70°02' E 030°30'5 9.3
2017-Dec-09 16:30N 69°58' E 030°21'5 9.8
2017-Dec-09 16:00N 69°55' E 030°13'510.2
2017-Dec-09 15:30N 69°50' E 030°07'510.9
2017-Dec-09 15:01N 69°45' E 030°05'1 1.6
2017-Dec-09 14:30N 69°44' E 030°05'0 0.0
2017-Dec-09 14:00N 69°44' E 030°05'0 0.0
2017-Dec-09 13:30N 69°44' E 030°05'1 0.0
2017-Dec-08 21:47N 69°44' E 030°06'2 6.3
2017-Dec-08 21:30N 69°46' E 030°06'4 8.0
2017-Dec-08 21:00N 69°50' E 030°06'4 7.3
2017-Dec-08 20:30N 69°53' E 030°01'4 7.6
2017-Dec-08 20:01N 69°56' E 029°56'4 7.6
2017-Dec-08 19:30N 69°58' E 029°47'7 1.9
2017-Dec-08 15:43N 70°01' E 029°28'210.6
2017-Dec-08 15:30N 70°00' E 029°34'510.4
2017-Dec-08 15:00N 69°58' E 029°48'510.4
2017-Dec-08 14:29N 69°54' E 029°59'510.5
2017-Dec-08 14:00N 69°50' E 030°06'6 0.4
2017-Dec-07 21:18N 69°44' E 030°06'2 7.0
2017-Dec-07 21:00N 69°46' E 030°06'4 8.0
2017-Dec-07 20:30N 69°50' E 030°07'4 7.7
2017-Dec-07 20:01N 69°53' E 030°00'4 8.2
2017-Dec-07 19:30N 69°57' E 029°54'4 8.3
2017-Dec-07 19:00N 69°59' E 029°44'9 2.8
2017-Dec-07 15:50N 70°02' E 029°19'310.2
2017-Dec-07 15:29N 70°01' E 029°29'510.2
2017-Dec-07 15:00N 69°59' E 029°43'510.0
2017-Dec-07 14:30N 69°56' E 029°55'510.1
2017-Dec-07 14:00N 69°52' E 030°01'5 9.3
2017-Dec-07 13:30N 69°47' E 030°06'  
Track history (hours):
 
Tides and Currents Weather Stations Pressure Air Temp Water Temp Dewpoint Dewpoint Depression Visibility Wind Speed Wind Dir Waves Ship Positions

Robris

Last reported at 2017-Dec-17 02:01 UTC. Time now 2017-Dec-17 02:15 UTC.
Position N 69°44' E 030°02'.

Length 46 m; draft 5.3 m.

Type: Cargo ship. MMSI: 259631000.

Date/timePositionNaut miles runAvg speedWind from/ knotsBaromVisibWave heightAir tempDewpointWater temp
2017-Dec-17 02:01N 69°44' E 030°02'0 0.0
2017-Dec-17 01:30N 69°44' E 030°02'0 0.0
2017-Dec-17 01:00N 69°44' E 030°02'0 0.0
2017-Dec-17 00:30N 69°44' E 030°02'0 0.0
2017-Dec-17 00:00N 69°44' E 030°02'0 0.0
2017-Dec-16 23:30N 69°44' E 030°02'0 0.0
2017-Dec-16 23:00N 69°44' E 030°02'0 0.0
2017-Dec-16 22:30N 69°44' E 030°02'0 0.0
2017-Dec-16 22:00N 69°44' E 030°02'0 0.0
2017-Dec-16 21:30N 69°44' E 030°02'0 0.0
2017-Dec-16 21:00N 69°44' E 030°02'0 0.0
2017-Dec-16 20:29N 69°44' E 030°02'0 0.0
2017-Dec-16 20:00N 69°44' E 030°02'0 0.0
2017-Dec-16 19:30N 69°44' E 030°02'0 0.0
2017-Dec-16 19:00N 69°44' E 030°02'0 0.0
2017-Dec-16 18:30N 69°44' E 030°02'0 0.0
2017-Dec-16 18:00N 69°44' E 030°02'0 0.0
2017-Dec-16 17:30N 69°44' E 030°02'0 0.0
2017-Dec-16 16:59N 69°44' E 030°02'0 0.0
2017-Dec-16 16:30N 69°44' E 030°02'0 0.0
2017-Dec-16 16:00N 69°44' E 030°02'0 0.0
2017-Dec-16 15:30N 69°44' E 030°02'0 0.0
2017-Dec-16 15:01N 69°44' E 030°02'0 0.0
2017-Dec-16 14:30N 69°44' E 030°02'0 0.0
2017-Dec-16 14:00N 69°44' E 030°02'1 0.1
2017-Dec-15 22:10N 69°44' E 030°06'1 8.0
2017-Dec-15 22:00N 69°45' E 030°06'4 8.0
2017-Dec-15 21:30N 69°49' E 030°06'4 7.8
2017-Dec-15 21:00N 69°53' E 030°01'4 8.1
2017-Dec-15 20:30N 69°56' E 029°55'4 8.7
2017-Dec-15 20:00N 69°59' E 029°45'9 2.9
2017-Dec-15 16:50N 70°02' E 029°20'310.2
2017-Dec-15 16:30N 70°01' E 029°29'510.5
2017-Dec-15 16:00N 69°59' E 029°44'510.3
2017-Dec-15 15:30N 69°56' E 029°55'510.7
2017-Dec-15 15:00N 69°51' E 030°03'5 9.9
2017-Dec-15 14:30N 69°46' E 030°06'2 0.3
2017-Dec-15 06:29N 69°44' E 030°06'4 7.8
2017-Dec-15 06:00N 69°48' E 030°06'4 8.1
2017-Dec-15 05:29N 69°52' E 030°07'4 7.5
2017-Dec-15 05:00N 69°55' E 030°13'4 7.8
2017-Dec-15 04:30N 69°58' E 030°20'4 7.7
2017-Dec-15 04:00N 70°01' E 030°27'11 7.7
2017-Dec-15 02:30N 70°10' E 030°49'11 7.1
2017-Dec-15 01:00N 70°19' E 031°05'5 9.3
2017-Dec-15 00:30N 70°23' E 031°03'5 0.9
2017-Dec-14 18:30N 70°28' E 030°55'510.6
2017-Dec-14 18:01N 70°23' E 031°03'611.5
2017-Dec-14 17:30N 70°18' E 031°05'510.9
2017-Dec-14 17:01N 70°13' E 030°56'611.0
2017-Dec-14 16:30N 70°09' E 030°46'611.1
2017-Dec-14 16:00N 70°05' E 030°35'1111.3
2017-Dec-14 15:00N 69°56' E 030°15'611.5
2017-Dec-14 14:30N 69°51' E 030°07'7 0.7
2017-Dec-14 04:53N 69°44' E 030°06'3 7.0
2017-Dec-14 04:30N 69°47' E 030°06'4 8.3
2017-Dec-14 04:00N 69°51' E 030°07'4 7.6
2017-Dec-14 03:30N 69°54' E 030°12'4 8.2
2017-Dec-14 03:00N 69°57' E 030°19'4 8.3
2017-Dec-14 02:30N 70°01' E 030°27'4 8.3
2017-Dec-14 02:00N 70°04' E 030°34'4 8.4
2017-Dec-14 01:30N 70°07' E 030°43'4 8.6
2017-Dec-14 01:00N 70°10' E 030°50'4 8.7
2017-Dec-14 00:29N 70°14' E 030°58'4 8.6
2017-Dec-14 00:01N 70°17' E 031°05'4 8.7
2017-Dec-13 23:30N 70°22' E 031°04'5 9.1
2017-Dec-13 23:00N 70°26' E 031°00'4 8.7
2017-Dec-13 22:30N 70°29' E 030°51'4 8.4
2017-Dec-13 22:00N 70°32' E 030°42'4 1.2
2017-Dec-13 18:20N 70°34' E 030°30'411.1
2017-Dec-13 18:00N 70°33' E 030°41'611.4
2017-Dec-13 17:30N 70°29' E 030°53'611.5
2017-Dec-13 17:00N 70°24' E 031°03'611.5
2017-Dec-13 16:30N 70°18' E 031°05'510.2
2017-Dec-13 16:00N 70°14' E 030°58'510.6
2017-Dec-13 15:30N 70°10' E 030°48'510.6
2017-Dec-13 15:00N 70°06' E 030°38'510.8
2017-Dec-13 14:30N 70°01' E 030°28'510.8
2017-Dec-13 14:00N 69°57' E 030°18'511.0
2017-Dec-13 13:30N 69°53' E 030°09'611.3
2017-Dec-13 13:00N 69°47' E 030°06'3 0.4
2017-Dec-13 04:07N 69°44' E 030°06'1 6.2
2017-Dec-13 04:00N 69°45' E 030°06'4 8.7
2017-Dec-13 03:30N 69°49' E 030°06'4 8.5
2017-Dec-13 03:00N 69°53' E 030°09'4 8.8
2017-Dec-13 02:30N 69°56' E 030°17'4 8.7
2017-Dec-13 02:00N 69°60' E 030°26'4 8.8
2017-Dec-13 01:30N 70°03' E 030°34'4 8.7
2017-Dec-13 01:00N 70°07' E 030°42'4 9.1
2017-Dec-13 00:30N 70°10' E 030°49'5 9.3
2017-Dec-13 00:00N 70°14' E 030°58'4 8.6
2017-Dec-12 23:30N 70°18' E 031°05'5 9.4
2017-Dec-12 23:00N 70°22' E 031°04'5 9.3
2017-Dec-12 22:30N 70°27' E 030°59'4 9.0
2017-Dec-12 22:00N 70°30' E 030°50'4 8.9
2017-Dec-12 21:31N 70°33' E 030°41'4 1.1
2017-Dec-12 18:07N 70°34' E 030°30'110.6
2017-Dec-12 18:00N 70°34' E 030°33'510.4
2017-Dec-12 17:30N 70°31' E 030°47'511.3
2017-Dec-12 17:01N 70°27' E 030°58'611.1
2017-Dec-12 16:30N 70°22' E 031°04'510.7
2017-Dec-12 16:00N 70°16' E 031°04'510.9
2017-Dec-12 15:30N 70°12' E 030°54'510.7
2017-Dec-12 15:00N 70°08' E 030°44'510.9
2017-Dec-12 14:30N 70°04' E 030°34'510.9
2017-Dec-12 14:01N 69°60' E 030°24'611.3
2017-Dec-12 13:31N 69°55' E 030°14'611.2
2017-Dec-12 12:59N 69°50' E 030°07'6 0.6
2017-Dec-12 03:47N 69°44' E 030°06'2 7.5
2017-Dec-12 03:30N 69°46' E 030°05'4 8.0
2017-Dec-12 03:01N 69°50' E 030°07'4 7.5
2017-Dec-12 02:30N 69°54' E 030°11'4 8.0
2017-Dec-12 01:59N 69°57' E 030°18'4 8.0
2017-Dec-12 01:30N 69°60' E 030°25'4 8.2
2017-Dec-12 00:59N 70°03' E 030°33'4 8.1
2017-Dec-12 00:30N 70°06' E 030°40'4 8.0
2017-Dec-12 00:00N 70°09' E 030°47'4 8.0
2017-Dec-11 23:30N 70°12' E 030°55'4 7.6
2017-Dec-11 23:00N 70°15' E 031°02'4 7.3
2017-Dec-11 22:30N 70°19' E 031°05'5 9.0
2017-Dec-11 22:00N 70°23' E 031°03'5 8.9
2017-Dec-11 21:30N 70°27' E 030°58'4 8.5
2017-Dec-11 21:00N 70°30' E 030°49'4 8.3
2017-Dec-11 20:30N 70°33' E 030°40'3 0.9
2017-Dec-11 16:37N 70°34' E 030°30'110.5
2017-Dec-11 16:30N 70°34' E 030°33'510.7
2017-Dec-11 16:00N 70°31' E 030°47'611.2
2017-Dec-11 15:30N 70°27' E 030°59'611.3
2017-Dec-11 15:00N 70°21' E 031°04'611.0
2017-Dec-11 14:30N 70°16' E 031°03'510.8
2017-Dec-11 14:00N 70°12' E 030°54'510.6
2017-Dec-11 13:31N 70°08' E 030°44'510.7
2017-Dec-11 13:00N 70°04' E 030°34'610.9
2017-Dec-11 12:30N 69°59' E 030°24'611.0
2017-Dec-11 12:00N 69°55' E 030°14'611.3
2017-Dec-11 11:30N 69°50' E 030°07'6 0.5
2017-Dec-10 23:49N 69°44' E 030°06'2 7.4
2017-Dec-10 23:30N 69°46' E 030°06'4 8.4
2017-Dec-10 23:00N 69°50' E 030°07'4 8.0
2017-Dec-10 22:30N 69°54' E 030°12'4 8.5
2017-Dec-10 22:00N 69°57' E 030°20'4 8.4
2017-Dec-10 21:30N 70°01' E 030°28'4 8.8
2017-Dec-10 21:00N 70°04' E 030°35'4 8.7
2017-Dec-10 20:30N 70°07' E 030°43'4 8.7
2017-Dec-10 20:00N 70°11' E 030°51'4 8.5
2017-Dec-10 19:30N 70°14' E 030°59'4 8.0
2017-Dec-10 19:00N 70°18' E 031°05'4 8.3
2017-Dec-10 18:30N 70°22' E 031°04'4 8.9
2017-Dec-10 18:00N 70°26' E 031°00'4 8.1
2017-Dec-10 17:30N 70°29' E 030°52'4 8.0
2017-Dec-10 16:59N 70°32' E 030°43'4 7.8
2017-Dec-10 16:30N 70°34' E 030°33'1 0.3
2017-Dec-10 12:00N 70°34' E 030°29'510.2
2017-Dec-10 11:30N 70°32' E 030°43'510.5
2017-Dec-10 11:00N 70°28' E 030°55'5 9.9
2017-Dec-10 10:30N 70°25' E 031°05'2 4.3
2017-Dec-10 10:00N 70°23' E 031°06'0 0.0
2017-Dec-10 09:30N 70°23' E 031°06'0 0.0
2017-Dec-10 09:01N 70°23' E 031°06'0 0.0
2017-Dec-10 08:30N 70°23' E 031°06'0 0.0
2017-Dec-10 08:01N 70°23' E 031°06'0 0.0
2017-Dec-10 07:30N 70°23' E 031°06'0 0.0
2017-Dec-10 07:00N 70°23' E 031°06'0 0.0
2017-Dec-10 06:30N 70°23' E 031°06'0 0.0
2017-Dec-10 06:00N 70°23' E 031°06'0 0.0
2017-Dec-10 05:30N 70°23' E 031°06'0 0.0
2017-Dec-10 05:00N 70°23' E 031°06'0 0.0
2017-Dec-10 04:30N 70°23' E 031°06'0 0.0
2017-Dec-10 04:01N 70°23' E 031°06'0 0.0
2017-Dec-10 03:30N 70°23' E 031°06'0 0.0
2017-Dec-10 03:00N 70°23' E 031°06'0 0.0
2017-Dec-10 02:30N 70°23' E 031°06'0 0.0
2017-Dec-10 02:00N 70°23' E 031°06'0 0.0
2017-Dec-10 01:30N 70°23' E 031°06'0 0.0
2017-Dec-10 00:59N 70°23' E 031°06'0 0.0
2017-Dec-10 00:30N 70°23' E 031°06'0 0.0
2017-Dec-10 00:00N 70°23' E 031°06'0 0.0
2017-Dec-09 23:30N 70°23' E 031°06'0 0.0
2017-Dec-09 23:00N 70°23' E 031°06'0 0.0
2017-Dec-09 22:30N 70°23' E 031°06'0 0.0
2017-Dec-09 22:00N 70°23' E 031°06'0 0.0
2017-Dec-09 21:30N 70°23' E 031°06'0 0.0
2017-Dec-09 21:00N 70°23' E 031°06'0 0.0
2017-Dec-09 20:30N 70°23' E 031°06'0 0.0
2017-Dec-09 20:00N 70°23' E 031°06'2 4.5
2017-Dec-09 19:30N 70°20' E 031°07'5 9.6
2017-Dec-09 19:00N 70°16' E 031°02'4 9.0
2017-Dec-09 18:30N 70°12' E 030°54'4 8.7
2017-Dec-09 18:01N 70°09' E 030°46'5 8.8
2017-Dec-09 17:30N 70°05' E 030°37'4 8.6
2017-Dec-09 17:00N 70°02' E 030°30'5 9.3
2017-Dec-09 16:30N 69°58' E 030°21'5 9.8
2017-Dec-09 16:00N 69°55' E 030°13'510.2
2017-Dec-09 15:30N 69°50' E 030°07'510.9
2017-Dec-09 15:01N 69°45' E 030°05'1 1.6
2017-Dec-09 14:30N 69°44' E 030°05'0 0.0
2017-Dec-09 14:00N 69°44' E 030°05'0 0.0
2017-Dec-09 13:30N 69°44' E 030°05'1 0.0
2017-Dec-08 21:47N 69°44' E 030°06'2 6.3
2017-Dec-08 21:30N 69°46' E 030°06'4 8.0
2017-Dec-08 21:00N 69°50' E 030°06'4 7.3
2017-Dec-08 20:30N 69°53' E 030°01'4 7.6
2017-Dec-08 20:01N 69°56' E 029°56'4 7.6
2017-Dec-08 19:30N 69°58' E 029°47'7 1.9
2017-Dec-08 15:43N 70°01' E 029°28'210.6
2017-Dec-08 15:30N 70°00' E 029°34'510.4
2017-Dec-08 15:00N 69°58' E 029°48'510.4
2017-Dec-08 14:29N 69°54' E 029°59'510.5
2017-Dec-08 14:00N 69°50' E 030°06'6 0.4
2017-Dec-07 21:18N 69°44' E 030°06'2 7.0
2017-Dec-07 21:00N 69°46' E 030°06'4 8.0
2017-Dec-07 20:30N 69°50' E 030°07'4 7.7
2017-Dec-07 20:01N 69°53' E 030°00'4 8.2
2017-Dec-07 19:30N 69°57' E 029°54'4 8.3
2017-Dec-07 19:00N 69°59' E 029°44'9 2.8
2017-Dec-07 15:50N 70°02' E 029°19'310.2
2017-Dec-07 15:29N 70°01' E 029°29'510.2
2017-Dec-07 15:00N 69°59' E 029°43'510.0
2017-Dec-07 14:30N 69°56' E 029°55'510.1
2017-Dec-07 14:00N 69°52' E 030°01'5 9.3
2017-Dec-07 13:30N 69°47' E 030°06'  

Dump ship's entire track history